Time;durP1;ratioP1;P1;durP2;ratioP2;P2;SDS_P1;SDS_P2;PMS_P1;PMS_P2;Temp;Humidity;BMP_temperature;BMP_pressure;BME280_temperature;BME280_humidity;BME280_pressure;Samples;Min_cycle;Max_cycle;Signal;HPM_P1;HPM_P2
2023/10/06 00:00:47;;;;;;;4.60;3.40;;;;;;;20.49;45.61;98369.91;105065;1259;74584;-45
2023/10/06 00:03:15;;;;;;;7.30;3.40;;;;;;;20.50;45.60;98366.44;105096;1263;66127;-46
2023/10/06 00:05:44;;;;;;;8.10;3.60;;;;;;;20.50;45.61;98363.00;105024;1259;72577;-46
2023/10/06 00:08:12;;;;;;;5.60;3.80;;;;;;;20.50;45.59;98364.79;105129;1259;61402;-46
2023/10/06 00:10:44;;;;;;;5.30;3.30;;;;;;;20.49;45.62;98370.67;105116;1260;61654;-46
2023/10/06 00:13:18;;;;;;;5.50;3.70;;;;;;;20.48;45.58;98372.13;105277;1259;73467;-46
2023/10/06 00:15:49;;;;;;;5.90;3.70;;;;;;;20.47;45.65;98376.63;105247;1259;66276;-45
2023/10/06 00:18:23;;;;;;;4.30;3.40;;;;;;;20.45;45.68;98377.41;105265;1259;72561;-46
2023/10/06 00:20:57;;;;;;;5.70;3.70;;;;;;;20.44;45.70;98377.95;105201;1259;61333;-46
2023/10/06 00:23:28;;;;;;;6.00;3.50;;;;;;;20.45;45.76;98381.25;105272;1259;61342;-46
2023/10/06 00:25:55;;;;;;;5.10;3.40;;;;;;;20.46;45.70;98381.34;105241;1263;74628;-46
2023/10/06 00:28:27;;;;;;;6.00;3.60;;;;;;;20.47;45.66;98380.64;105105;1263;65989;-46
2023/10/06 00:30:57;;;;;;;8.80;3.70;;;;;;;20.45;45.75;98381.02;105070;1263;71127;-46
2023/10/06 00:33:32;;;;;;;5.30;3.60;;;;;;;20.45;45.77;98385.98;105036;1260;61295;-45
2023/10/06 00:36:12;;;;;;;6.10;3.20;;;;;;;20.45;45.73;98385.89;105062;1259;61306;-45
2023/10/06 00:38:42;;;;;;;4.80;3.30;;;;;;;20.44;45.74;98393.02;105057;1259;74602;-45
2023/10/06 00:41:14;;;;;;;7.10;3.60;;;;;;;20.43;45.78;98395.27;105045;1265;65281;-45
2023/10/06 00:43:45;;;;;;;4.40;3.20;;;;;;;20.43;45.80;98395.40;105245;1259;72569;-45
2023/10/06 00:46:13;;;;;;;5.70;3.50;;;;;;;20.41;45.79;98396.84;105226;1264;61258;-45
2023/10/06 00:48:42;;;;;;;4.70;3.20;;;;;;;20.41;45.75;98399.40;105119;1259;61290;-44
2023/10/06 00:51:19;;;;;;;4.70;3.40;;;;;;;20.41;45.83;98394.64;105149;1259;74619;-45
2023/10/06 00:53:47;;;;;;;4.80;3.30;;;;;;;20.41;45.87;98397.14;105220;1259;65808;-43
2023/10/06 00:56:15;;;;;;;5.70;3.50;;;;;;;20.40;45.84;98395.02;105084;1260;73054;-44
2023/10/06 00:58:43;;;;;;;4.50;3.10;;;;;;;20.41;45.99;98396.44;105071;1263;61275;-44
2023/10/06 01:01:12;;;;;;;5.00;3.40;;;;;;;20.40;45.94;98398.11;105046;1259;61293;-46
2023/10/06 01:03:44;;;;;;;5.70;3.40;;;;;;;20.40;45.89;98397.87;105125;1259;74584;-44
2023/10/06 01:06:14;;;;;;;3.80;2.80;;;;;;;20.39;45.86;98401.13;105093;1263;66291;-46
2023/10/06 01:08:52;;;;;;;4.90;3.30;;;;;;;20.38;45.91;98404.44;105081;1264;72589;-46
2023/10/06 01:11:26;;;;;;;4.70;2.90;;;;;;;20.37;46.09;98403.70;105038;1263;61195;-45
2023/10/06 01:13:55;;;;;;;5.80;3.10;;;;;;;20.38;45.98;98404.95;105084;1259;61392;-47
2023/10/06 01:16:25;;;;;;;4.10;2.90;;;;;;;20.37;46.10;98404.33;104964;1260;75534;-46
2023/10/06 01:19:00;;;;;;;4.10;3.30;;;;;;;20.37;46.10;98405.19;105119;1264;66047;-46
2023/10/06 01:21:30;;;;;;;4.50;3.10;;;;;;;20.37;46.05;98408.28;105114;1259;72518;-46
2023/10/06 01:24:11;;;;;;;5.20;3.50;;;;;;;20.36;46.03;98406.48;105128;1264;61282;-46
2023/10/06 01:26:41;;;;;;;5.60;3.20;;;;;;;20.35;46.05;98402.79;105099;1259;61313;-46
2023/10/06 01:29:13;;;;;;;6.30;3.30;;;;;;;20.35;46.15;98405.18;105149;1264;74409;-46
2023/10/06 01:31:41;;;;;;;5.00;3.30;;;;;;;20.34;46.00;98409.75;105263;1262;65999;-46
2023/10/06 01:34:12;;;;;;;5.00;3.20;;;;;;;20.33;46.16;98410.98;105307;1259;72594;-46
2023/10/06 01:36:40;;;;;;;5.50;3.60;;;;;;;20.33;46.19;98416.64;105190;1265;61287;-46
2023/10/06 01:39:16;;;;;;;6.40;3.60;;;;;;;20.33;46.15;98420.59;105278;1260;61215;-46
2023/10/06 01:41:46;;;;;;;5.20;3.50;;;;;;;20.33;46.14;98423.31;105240;1259;74692;-46
2023/10/06 01:44:15;;;;;;;5.70;3.30;;;;;;;20.33;46.09;98428.75;105241;1263;67442;-44
2023/10/06 01:46:43;;;;;;;4.90;2.90;;;;;;;20.32;46.09;98434.42;105217;1260;72437;-46
2023/10/06 01:49:10;;;;;;;4.60;3.20;;;;;;;20.33;46.16;98437.38;105293;1263;61302;-47
2023/10/06 01:51:40;;;;;;;4.20;3.10;;;;;;;20.33;46.21;98436.90;105254;1259;61300;-45
2023/10/06 01:54:13;;;;;;;4.90;3.30;;;;;;;20.33;46.23;98438.93;105276;1259;73461;-46
2023/10/06 01:56:42;;;;;;;5.10;3.20;;;;;;;20.32;46.17;98444.29;105197;1263;66249;-46
2023/10/06 01:59:16;;;;;;;3.70;2.90;;;;;;;20.32;46.18;98447.14;105312;1263;71393;-47
2023/10/06 02:01:43;;;;;;;4.50;3.10;;;;;;;20.32;46.26;98446.05;105266;1259;61252;-47
2023/10/06 02:04:11;;;;;;;8.10;3.00;;;;;;;20.31;46.30;98450.79;105304;1263;61270;-47
2023/10/06 02:06:38;;;;;;;4.30;3.10;;;;;;;20.31;46.39;98448.61;105310;1260;74755;-47
2023/10/06 02:09:06;;;;;;;7.00;3.30;;;;;;;20.31;46.38;98453.32;105248;1260;65369;-45
2023/10/06 02:11:34;;;;;;;4.10;2.80;;;;;;;20.29;46.30;98456.68;105082;1264;72625;-45
2023/10/06 02:14:04;;;;;;;4.50;3.20;;;;;;;20.27;46.44;98459.27;105054;1265;61256;-45
2023/10/06 02:16:32;;;;;;;4.20;2.90;;;;;;;20.26;46.38;98459.31;105214;1259;61224;-46
2023/10/06 02:19:01;;;;;;;5.60;3.30;;;;;;;20.25;46.47;98466.45;105186;1261;74727;-46
2023/10/06 02:21:29;;;;;;;4.80;3.30;;;;;;;20.23;46.37;98459.39;105269;1259;65643;-46
2023/10/06 02:24:03;;;;;;;4.90;3.00;;;;;;;20.21;46.42;98456.95;105245;1259;72937;-45
2023/10/06 02:26:37;;;;;;;5.10;3.30;;;;;;;20.20;46.56;98454.89;105263;1263;61283;-45
2023/10/06 02:29:15;;;;;;;4.50;3.10;;;;;;;20.19;46.46;98452.63;105309;1264;61367;-45
2023/10/06 02:31:43;;;;;;;5.80;3.00;;;;;;;20.19;46.54;98452.47;105199;1259;74735;-45
2023/10/06 02:34:21;;;;;;;4.10;3.20;;;;;;;20.19;46.49;98453.95;105258;1263;66055;-46
2023/10/06 02:36:49;;;;;;;4.50;2.70;;;;;;;20.19;46.55;98456.42;105121;1259;72595;-45
2023/10/06 02:39:16;;;;;;;4.60;3.00;;;;;;;20.18;46.57;98460.30;105267;1265;61290;-44
2023/10/06 02:41:46;;;;;;;3.70;2.90;;;;;;;20.18;46.64;98460.21;105222;1260;61264;-45
2023/10/06 02:44:22;;;;;;;4.40;3.00;;;;;;;20.18;46.67;98460.27;105287;1260;74709;-45
2023/10/06 02:46:53;;;;;;;4.90;2.90;;;;;;;20.17;46.57;98462.30;105263;1264;66290;-45
2023/10/06 02:49:35;;;;;;;4.80;3.00;;;;;;;20.17;46.63;98464.30;105238;1259;72353;-45
2023/10/06 02:52:13;;;;;;;4.30;2.40;;;;;;;20.17;46.77;98458.23;105247;1263;61296;-45
2023/10/06 02:57:50;;;;;;;5.50;2.80;;;;;;;20.17;46.75;98465.55;104638;1266;74344;-47
2023/10/06 03:02:46;;;;;;;3.70;2.60;;;;;;;20.18;46.71;98472.17;104978;1259;72520;-45
2023/10/06 03:05:14;;;;;;;4.30;3.00;;;;;;;20.18;46.72;98475.27;105031;1264;61291;-45
2023/10/06 03:07:45;;;;;;;5.80;2.70;;;;;;;20.17;46.73;98478.90;105016;1259;61285;-45
2023/10/06 03:10:16;;;;;;;5.30;3.10;;;;;;;20.17;46.78;98475.31;105095;1261;74760;-45
2023/10/06 03:12:43;;;;;;;4.80;3.00;;;;;;;20.16;46.73;98474.99;105058;1264;66230;-45
2023/10/06 03:15:35;;;;;;;3.30;2.60;;;;;;;20.17;46.89;98484.55;105010;1259;72336;-45
2023/10/06 03:18:03;;;;;;;3.70;2.80;;;;;;;20.17;46.88;98488.69;105008;1264;61260;-45
2023/10/06 03:20:41;;;;;;;4.60;2.90;;;;;;;20.16;46.84;98487.02;105006;1259;61338;-45
2023/10/06 03:23:15;;;;;;;3.30;2.60;;;;;;;20.17;46.73;98490.08;105128;1259;74645;-45
2023/10/06 03:25:43;;;;;;;3.90;2.70;;;;;;;20.15;46.91;98489.56;104972;1259;64983;-45
2023/10/06 03:28:11;;;;;;;4.80;2.90;;;;;;;20.14;46.85;98492.48;105012;1259;72665;-45
2023/10/06 03:30:41;;;;;;;3.30;2.60;;;;;;;20.14;46.80;98491.92;105065;1264;61286;-45
2023/10/06 03:33:13;;;;;;;4.70;2.90;;;;;;;20.13;46.89;98491.84;105175;1265;61568;-45
2023/10/06 03:35:48;;;;;;;5.90;2.80;;;;;;;20.13;46.90;98493.39;104974;1263;74361;-45
2023/10/06 03:46:23;;;;;;;3.60;2.50;;;;;;;20.10;46.84;98498.25;104650;1265;61528;-45
2023/10/06 03:48:52;;;;;;;3.50;2.60;;;;;;;20.09;46.89;98500.08;105120;1261;74195;-45
2023/10/06 03:51:19;;;;;;;4.00;2.60;;;;;;;20.08;47.00;98501.70;105211;1259;65057;-44
2023/10/06 03:53:48;;;;;;;4.00;2.90;;;;;;;20.08;46.89;98508.27;105070;1259;72346;-44
2023/10/06 03:56:16;;;;;;;7.60;3.20;;;;;;;20.08;47.03;98509.06;105109;1263;61288;-46
2023/10/06 03:58:47;;;;;;;4.40;2.90;;;;;;;20.07;46.99;98508.27;105148;1259;61382;-46
2023/10/06 04:01:26;;;;;;;3.60;2.80;;;;;;;20.07;47.03;98506.38;105039;1261;74457;-45
2023/10/06 04:03:54;;;;;;;4.40;2.80;;;;;;;20.06;47.08;98511.02;105214;1260;65005;-46
2023/10/06 04:06:23;;;;;;;3.40;2.40;;;;;;;20.05;47.15;98512.69;105238;1260;72577;-46
2023/10/06 04:08:52;;;;;;;4.20;2.50;;;;;;;20.04;47.13;98516.57;105310;1265;61269;-46
2023/10/06 04:11:20;;;;;;;3.70;2.60;;;;;;;20.04;47.18;98516.25;105304;1265;61278;-47
2023/10/06 04:13:48;;;;;;;3.90;2.80;;;;;;;20.05;47.16;98519.98;105258;1259;74518;-47
2023/10/06 04:16:16;;;;;;;3.60;2.60;;;;;;;20.05;47.15;98522.86;105389;1264;66107;-45
2023/10/06 04:18:47;;;;;;;3.40;2.80;;;;;;;20.04;47.23;98520.89;105314;1260;72459;-45
2023/10/06 04:21:16;;;;;;;3.40;2.60;;;;;;;20.03;47.13;98522.55;105257;1263;61285;-44
2023/10/06 04:23:43;;;;;;;3.70;2.50;;;;;;;20.01;47.19;98524.63;105123;1260;61257;-45
2023/10/06 04:26:13;;;;;;;4.50;2.30;;;;;;;20.01;47.32;98525.39;105053;1263;74662;-45
2023/10/06 04:28:41;;;;;;;4.40;2.80;;;;;;;20.02;47.31;98524.71;105182;1263;65494;-45
2023/10/06 04:31:09;;;;;;;3.30;2.30;;;;;;;20.02;47.28;98522.16;105312;1259;72726;-45
2023/10/06 04:33:37;;;;;;;3.80;2.40;;;;;;;20.02;47.25;98521.90;105236;1265;61389;-45
2023/10/06 04:36:08;;;;;;;5.10;2.90;;;;;;;20.00;47.29;98524.02;105137;1259;61352;-45
2023/10/06 04:38:40;;;;;;;3.40;2.40;;;;;;;20.00;47.37;98528.29;105266;1259;73177;-45
2023/10/06 04:41:08;;;;;;;4.30;2.80;;;;;;;20.00;47.33;98533.26;105238;1264;65219;-45
2023/10/06 04:43:39;;;;;;;4.10;2.70;;;;;;;19.99;47.31;98538.22;105222;1259;72329;-46
2023/10/06 04:46:07;;;;;;;3.40;2.50;;;;;;;19.99;47.41;98538.67;105090;1259;61267;-45
2023/10/06 04:48:38;;;;;;;3.60;2.80;;;;;;;19.98;47.42;98543.30;105324;1259;61342;-46
2023/10/06 04:51:05;;;;;;;4.50;2.70;;;;;;;19.98;47.39;98543.48;105264;1259;74615;-46
2023/10/06 04:53:35;;;;;;;3.80;2.60;;;;;;;19.98;47.43;98545.55;105283;1263;66207;-45
2023/10/06 04:56:05;;;;;;;4.80;2.90;;;;;;;19.98;47.37;98545.88;105072;1259;72364;-46
2023/10/06 04:58:32;;;;;;;4.70;2.60;;;;;;;19.98;47.40;98554.95;105255;1259;61423;-45
2023/10/06 05:01:00;;;;;;;5.30;2.80;;;;;;;19.98;47.58;98554.89;105024;1263;61372;-45
2023/10/06 05:03:27;;;;;;;3.70;2.90;;;;;;;19.98;47.67;98556.90;105010;1259;74373;-46
2023/10/06 05:05:58;;;;;;;5.50;3.10;;;;;;;19.98;47.60;98561.64;105027;1264;66205;-45
2023/10/06 05:08:25;;;;;;;5.10;2.80;;;;;;;19.97;47.63;98565.80;105073;1259;72705;-45
2023/10/06 05:10:55;;;;;;;5.40;2.60;;;;;;;19.96;47.72;98571.67;105243;1264;61296;-47
2023/10/06 05:13:23;;;;;;;3.30;2.50;;;;;;;19.96;47.65;98573.63;105130;1260;61271;-45
2023/10/06 05:15:50;;;;;;;5.40;2.70;;;;;;;19.95;47.93;98579.33;106052;1260;74417;-45
2023/10/06 05:18:18;;;;;;;4.70;2.90;;;;;;;19.95;47.95;98583.97;105126;1262;66947;-45
2023/10/06 05:21:54;;;;;;;4.10;2.90;;;;;;;19.95;48.06;98586.08;104538;1262;72870;-45
2023/10/06 05:24:21;;;;;;;5.90;3.00;;;;;;;19.93;48.31;98590.21;106219;1263;61272;-46
2023/10/06 05:26:50;;;;;;;4.80;2.80;;;;;;;19.92;48.51;98598.02;104916;1259;61292;-44
2023/10/06 05:29:18;;;;;;;5.30;2.60;;;;;;;19.93;48.60;98602.16;105266;1265;74194;-48
2023/10/06 05:31:46;;;;;;;8.20;3.30;;;;;;;19.92;48.57;98602.77;105549;1268;65140;-48
2023/10/06 05:34:19;;;;;;;6.10;3.00;;;;;;;19.93;48.57;98608.37;105351;1265;72786;-48
2023/10/06 05:36:54;;;;;;;5.30;2.90;;;;;;;19.92;48.62;98616.34;105361;1259;61398;-48
2023/10/06 05:39:28;;;;;;;4.60;3.10;;;;;;;19.89;48.58;98615.77;105529;1262;61214;-48
2023/10/06 05:41:59;;;;;;;5.60;3.10;;;;;;;19.86;48.66;98617.36;106002;1259;74364;-52
2023/10/06 05:44:41;;;;;;;6.20;3.10;;;;;;;19.84;48.67;98620.26;107073;1259;65924;-49
2023/10/06 05:47:12;;;;;;;4.20;2.60;;;;;;;19.85;48.68;98623.01;105145;1259;73870;-47
2023/10/06 05:49:47;;;;;;;5.90;2.70;;;;;;;19.87;48.73;98621.98;105292;1265;62484;-49
2023/10/06 05:52:24;;;;;;;4.80;2.70;;;;;;;19.89;48.78;98627.83;105142;1259;61309;-46
2023/10/06 05:55:04;;;;;;;9.30;2.70;;;;;;;19.92;49.12;98628.36;105428;1263;74867;-49
2023/10/06 05:57:48;;;;;;;5.50;3.10;;;;;;;19.93;49.50;98629.75;105605;1265;64245;-44
2023/10/06 06:00:35;;;;;;;5.80;2.80;;;;;;;19.96;50.04;98631.02;108342;1259;71663;-48
2023/10/06 06:03:32;;;;;;;4.00;2.90;;;;;;;19.96;50.22;98633.82;105186;1265;61351;-52
2023/10/06 06:07:11;;;;;;;7.90;3.10;;;;;;;19.97;50.28;98640.05;105240;1264;61137;-47
2023/10/06 06:09:45;;;;;;;3.80;2.80;;;;;;;19.97;50.43;98641.02;105213;1265;74744;-52
2023/10/06 06:12:21;;;;;;;5.80;2.90;;;;;;;19.98;50.29;98645.60;105076;1260;67287;-45
2023/10/06 06:14:49;;;;;;;6.20;2.90;;;;;;;19.99;50.50;98652.25;105411;1262;72615;-45
2023/10/06 06:17:16;;;;;;;5.80;3.30;;;;;;;20.00;50.69;98652.80;105251;1265;61257;-45
2023/10/06 06:19:43;;;;;;;5.60;3.20;;;;;;;19.98;50.52;98658.91;105151;1259;61286;-45
2023/10/06 06:22:12;;;;;;;5.60;3.10;;;;;;;19.96;50.36;98660.60;105017;1260;73736;-43
2023/10/06 06:24:40;;;;;;;5.90;3.10;;;;;;;19.96;50.48;98666.80;105057;1263;65729;-44
2023/10/06 06:27:09;;;;;;;6.60;3.40;;;;;;;19.95;50.40;98670.51;105021;1260;72680;-45
2023/10/06 06:29:38;;;;;;;5.50;2.90;;;;;;;19.96;50.46;98670.55;104980;1265;61270;-45
2023/10/06 06:32:11;;;;;;;6.00;2.90;;;;;;;19.98;50.47;98677.05;104938;1259;61898;-45
2023/10/06 06:34:39;;;;;;;4.50;3.00;;;;;;;19.98;50.31;98674.48;105074;1265;74603;-46
2023/10/06 06:37:09;;;;;;;8.30;2.70;;;;;;;19.98;50.27;98673.73;105278;1262;65641;-45
2023/10/06 06:39:37;;;;;;;4.80;3.20;;;;;;;19.98;50.21;98678.30;105117;1259;72645;-46
2023/10/06 06:42:05;;;;;;;5.40;3.20;;;;;;;19.98;50.07;98681.50;105184;1262;61192;-45
2023/10/06 06:44:34;;;;;;;4.40;3.00;;;;;;;19.98;49.99;98675.75;105128;1259;61368;-42
2023/10/06 06:47:03;;;;;;;3.90;2.60;;;;;;;19.97;50.19;98676.42;105290;1260;74614;-40
2023/10/06 06:49:30;;;;;;;4.30;3.00;;;;;;;19.98;50.13;98678.23;105309;1259;66376;-42
2023/10/06 06:51:58;;;;;;;7.50;3.00;;;;;;;19.98;50.12;98682.73;105003;1260;72613;-41
2023/10/06 06:54:26;;;;;;;8.60;3.30;;;;;;;19.98;50.07;98681.27;105109;1264;61391;-42
2023/10/06 06:56:53;;;;;;;5.90;3.00;;;;;;;19.98;50.21;98688.80;105209;1259;61424;-41
2023/10/06 06:59:21;;;;;;;9.90;4.30;;;;;;;19.97;50.54;98687.39;105108;1265;74647;-42
2023/10/06 07:01:48;;;;;;;9.20;3.90;;;;;;;19.97;51.10;98696.86;105352;1263;66104;-42
2023/10/06 07:04:16;;;;;;;8.50;3.60;;;;;;;19.98;50.93;98696.88;105229;1263;71176;-42
2023/10/06 07:06:44;;;;;;;7.70;3.50;;;;;;;19.97;50.88;98694.30;105272;1263;61286;-41
2023/10/06 07:09:12;;;;;;;6.90;3.40;;;;;;;19.97;50.86;98699.17;105245;1262;61280;-41
2023/10/06 07:11:42;;;;;;;8.20;3.70;;;;;;;19.97;50.80;98698.57;105090;1259;74776;-41
2023/10/06 07:14:09;;;;;;;7.20;3.50;;;;;;;19.97;50.66;98700.34;105097;1263;66855;-42
2023/10/06 07:16:37;;;;;;;6.20;3.20;;;;;;;19.98;50.67;98698.02;105106;1260;72690;-41
2023/10/06 07:19:06;;;;;;;8.40;3.40;;;;;;;19.99;50.53;98700.88;105110;1263;61271;-41
2023/10/06 07:21:34;;;;;;;9.90;3.50;;;;;;;20.00;50.57;98705.23;105060;1259;61379;-42
2023/10/06 07:24:03;;;;;;;6.20;3.40;;;;;;;20.00;50.40;98705.04;105091;1259;74613;-41
2023/10/06 07:26:31;;;;;;;5.30;3.00;;;;;;;20.01;50.35;98706.86;105042;1265;66089;-41
2023/10/06 07:28:59;;;;;;;6.10;3.00;;;;;;;20.02;50.28;98710.23;105090;1259;72739;-40
2023/10/06 07:31:26;;;;;;;6.90;2.80;;;;;;;20.03;50.17;98714.77;105209;1265;61394;-42
2023/10/06 07:33:57;;;;;;;5.20;3.30;;;;;;;20.04;50.14;98716.82;105116;1265;61349;-41
2023/10/06 07:36:26;;;;;;;4.20;2.60;;;;;;;20.05;50.10;98721.38;105230;1261;74702;-41
2023/10/06 07:38:53;;;;;;;4.90;2.80;;;;;;;20.06;50.11;98719.33;105095;1265;66300;-42
2023/10/06 07:41:24;;;;;;;9.10;3.40;;;;;;;20.06;50.05;98723.98;104988;1260;73671;-42
2023/10/06 07:43:53;;;;;;;7.80;3.10;;;;;;;20.06;49.89;98728.18;105030;1264;61182;-41
2023/10/06 07:46:20;;;;;;;5.70;3.20;;;;;;;20.05;50.02;98725.86;108924;1259;60248;-42
2023/10/06 07:48:50;;;;;;;5.20;3.00;;;;;;;20.04;50.06;98730.83;108924;1259;73131;-42
2023/10/06 07:51:17;;;;;;;5.60;2.50;;;;;;;20.04;50.10;98732.62;108786;1259;66073;-42
2023/10/06 07:53:45;;;;;;;5.50;2.90;;;;;;;20.04;50.10;98728.63;108793;1259;72289;-42
2023/10/06 07:56:14;;;;;;;6.20;3.20;;;;;;;20.05;50.10;98732.41;107008;1265;61337;-41
2023/10/06 07:58:42;;;;;;;5.70;3.20;;;;;;;20.06;50.02;98733.23;108024;1259;59149;-41
2023/10/06 08:01:10;;;;;;;8.50;3.60;;;;;;;20.07;50.05;98736.52;105159;1264;74496;-40
2023/10/06 08:03:39;;;;;;;5.70;3.10;;;;;;;20.08;49.91;98736.02;105155;1265;66160;-41
2023/10/06 08:06:07;;;;;;;6.70;2.80;;;;;;;20.08;50.08;98739.82;105120;1260;72891;-41
2023/10/06 08:08:34;;;;;;;5.40;3.10;;;;;;;20.08;49.96;98737.35;104994;1265;61200;-41
2023/10/06 08:11:02;;;;;;;5.40;3.00;;;;;;;20.09;49.96;98740.71;105014;1264;61256;-41
2023/10/06 08:13:31;;;;;;;4.50;2.90;;;;;;;20.10;49.97;98738.26;105124;1263;74513;-42
2023/10/06 08:16:07;;;;;;;5.70;2.60;;;;;;;20.11;50.03;98739.08;105251;1263;66343;-44
2023/10/06 08:18:54;;;;;;;7.80;3.40;;;;;;;20.13;49.94;98739.99;105061;1267;73253;-44
2023/10/06 08:21:23;;;;;;;5.00;2.90;;;;;;;20.13;50.02;98739.32;104855;1268;61262;-43
2023/10/06 08:24:41;;;;;;;5.30;3.20;;;;;;;20.15;49.78;98743.94;105297;1260;61321;-42
2023/10/06 08:27:23;;;;;;;4.10;2.70;;;;;;;20.14;49.48;98749.67;105983;1268;74433;-43
2023/10/06 08:30:15;;;;;;;5.60;2.90;;;;;;;20.13;49.35;98749.88;105915;1265;64940;-44
2023/10/06 08:32:48;;;;;;;5.70;3.00;;;;;;;20.13;49.29;98745.27;105383;1265;72154;-41
2023/10/06 08:35:22;;;;;;;4.30;2.70;;;;;;;20.13;49.31;98746.83;105740;1262;61372;-45
2023/10/06 08:37:57;;;;;;;6.40;2.90;;;;;;;20.14;49.27;98751.77;105738;1266;61278;-43
2023/10/06 08:40:38;;;;;;;7.90;2.70;;;;;;;20.15;49.01;98743.48;105811;1260;75658;-44
2023/10/06 08:43:15;;;;;;;4.70;2.80;;;;;;;20.16;48.90;98749.42;105668;1259;65084;-43
2023/10/06 08:46:15;;;;;;;8.70;2.70;;;;;;;20.17;48.68;98743.70;106584;1263;72933;-43
2023/10/06 08:49:09;;;;;;;5.00;2.40;;;;;;;20.18;48.73;98745.94;105627;1261;62058;-45
2023/10/06 08:51:42;;;;;;;4.30;2.70;;;;;;;20.19;48.67;98750.94;105483;1266;61305;-43
2023/10/06 08:54:24;;;;;;;6.30;2.60;;;;;;;20.20;48.63;98754.00;106363;1259;73272;-42
2023/10/06 08:57:04;;;;;;;6.40;2.80;;;;;;;20.21;48.54;98757.48;105208;1259;67477;-43
2023/10/06 08:59:33;;;;;;;4.30;2.20;;;;;;;20.23;48.25;98762.06;106334;1260;72636;-46
2023/10/06 09:02:03;;;;;;;5.50;2.50;;;;;;;20.23;47.83;98763.30;105708;1265;61155;-44
2023/10/06 09:04:35;;;;;;;4.40;2.50;;;;;;;20.23;47.85;98757.80;104974;1263;222922;-44
2023/10/06 09:07:13;;;;;;;4.10;2.20;;;;;;;20.24;47.60;98758.92;105024;1261;74374;-45
2023/10/06 09:09:54;;;;;;;4.30;1.90;;;;;;;20.24;47.53;98759.91;105450;1262;67085;-41
2023/10/06 09:13:04;;;;;;;5.60;2.20;;;;;;;20.24;47.45;98764.58;105814;1265;71247;-44
2023/10/06 09:15:37;;;;;;;6.20;2.20;;;;;;;20.26;47.67;98764.73;105442;1263;61377;-43
2023/10/06 09:18:28;;;;;;;4.10;2.10;;;;;;;20.26;47.75;98764.76;105407;1259;61308;-43
2023/10/06 09:21:21;;;;;;;4.70;2.40;;;;;;;20.29;47.85;98764.77;104813;1270;74400;-44
2023/10/06 09:23:49;;;;;;;6.40;2.20;;;;;;;20.30;47.85;98762.64;105125;1265;67212;-44
2023/10/06 09:26:58;;;;;;;3.90;2.40;;;;;;;20.32;47.95;98761.38;105104;1265;73611;-44
2023/10/06 09:30:11;;;;;;;5.50;2.00;;;;;;;20.34;47.90;98761.35;105870;1261;61486;-43
2023/10/06 09:33:04;;;;;;;5.70;2.40;;;;;;;20.35;47.79;98767.98;105876;1265;61221;-41
2023/10/06 09:35:32;;;;;;;9.10;2.50;;;;;;;20.36;47.78;98771.48;105099;1263;74546;-40
2023/10/06 09:38:13;;;;;;;4.20;2.30;;;;;;;20.37;47.78;98771.49;105060;1263;67128;-43
2023/10/06 09:40:43;;;;;;;4.70;2.20;;;;;;;20.38;47.53;98772.25;105086;1265;72674;-41
2023/10/06 09:43:17;;;;;;;4.40;2.10;;;;;;;20.38;47.20;98774.42;105183;1266;61382;-44
2023/10/06 09:45:48;;;;;;;6.60;2.20;;;;;;;20.37;46.82;98774.64;104970;1262;61388;-39
2023/10/06 09:48:17;;;;;;;7.20;2.00;;;;;;;20.36;46.73;98776.45;105885;1266;76123;-40
2023/10/06 09:50:46;;;;;;;4.40;2.30;;;;;;;20.36;46.89;98769.75;105055;1262;65495;-40
2023/10/06 09:53:14;;;;;;;5.10;2.30;;;;;;;20.36;46.92;98766.12;105055;1262;72661;-40
2023/10/06 09:55:42;;;;;;;4.60;2.20;;;;;;;20.37;46.93;98764.42;104927;1261;61267;-39
2023/10/06 09:58:09;;;;;;;5.30;2.20;;;;;;;20.38;47.06;98763.77;105197;1262;61399;-40
2023/10/06 10:00:39;;;;;;;4.00;2.40;;;;;;;20.38;46.95;98756.53;105002;1266;74583;-42
2023/10/06 10:03:08;;;;;;;6.50;1.80;;;;;;;20.38;47.00;98760.83;105169;1262;66403;-43
2023/10/06 10:05:38;;;;;;;8.00;2.40;;;;;;;20.39;47.01;98766.23;105174;1266;71258;-42
2023/10/06 10:08:06;;;;;;;5.80;2.30;;;;;;;20.39;47.01;98764.45;105615;1265;61212;-42
2023/10/06 10:10:35;;;;;;;7.90;2.40;;;;;;;20.40;47.11;98764.94;108922;1259;60028;-43
2023/10/06 10:13:26;;;;;;;4.80;2.20;;;;;;;20.40;47.14;98764.39;108932;1259;74098;-43
2023/10/06 10:16:16;;;;;;;4.70;2.30;;;;;;;20.42;47.06;98756.91;107496;1262;65863;-43
2023/10/06 10:18:49;;;;;;;4.90;2.20;;;;;;;20.43;46.91;98756.93;105015;1262;73320;-43
2023/10/06 10:21:16;;;;;;;4.20;2.00;;;;;;;20.43;46.51;98754.70;105074;1273;61302;-43
2023/10/06 10:23:43;;;;;;;3.40;1.70;;;;;;;20.43;46.58;98754.02;105080;1264;61376;-43
2023/10/06 10:26:26;;;;;;;4.80;2.00;;;;;;;20.44;46.63;98750.52;105131;1260;75484;-43
2023/10/06 10:29:12;;;;;;;4.10;2.00;;;;;;;20.45;46.38;98753.20;105202;1265;66279;-43
2023/10/06 10:31:42;;;;;;;2.50;1.40;;;;;;;20.44;46.20;98750.93;105172;1263;73480;-43
2023/10/06 10:34:33;;;;;;;3.30;1.90;;;;;;;20.44;46.14;98753.25;105327;1264;61256;-42
2023/10/06 10:37:05;;;;;;;5.00;1.80;;;;;;;20.43;46.17;98750.56;105211;1269;61251;-43
2023/10/06 10:39:59;;;;;;;3.20;1.80;;;;;;;20.43;46.12;98749.41;105157;1263;74415;-42
2023/10/06 10:42:37;;;;;;;2.70;1.80;;;;;;;20.43;45.99;98747.52;105366;1263;67662;-42
2023/10/06 10:45:30;;;;;;;6.70;1.90;;;;;;;20.42;46.04;98751.54;105326;1263;72768;-43
2023/10/06 10:47:59;;;;;;;4.00;1.90;;;;;;;20.41;46.09;98749.88;105303;1261;61366;-42
2023/10/06 10:50:28;;;;;;;3.40;1.80;;;;;;;20.40;45.89;98751.48;105003;1264;61121;-42
2023/10/06 10:52:55;;;;;;;2.90;1.50;;;;;;;20.39;45.63;98748.59;105494;1263;74616;-43
2023/10/06 10:55:26;;;;;;;4.00;1.80;;;;;;;20.38;45.47;98747.77;105254;1268;66046;-43
2023/10/06 10:57:53;;;;;;;3.10;1.60;;;;;;;20.39;45.56;98747.00;105467;1262;72788;-43
2023/10/06 11:00:21;;;;;;;3.80;1.60;;;;;;;20.39;45.66;98745.94;105052;1266;61263;-43
2023/10/06 11:02:49;;;;;;;3.00;1.30;;;;;;;20.39;45.32;98745.15;105641;1260;61381;-44
2023/10/06 11:05:18;;;;;;;4.50;1.40;;;;;;;20.38;45.27;98745.98;105056;1264;75599;-44
2023/10/06 11:07:56;;;;;;;3.30;1.40;;;;;;;20.37;44.73;98747.64;105598;1263;67173;-42
2023/10/06 11:10:26;;;;;;;2.30;1.10;;;;;;;20.36;44.73;98750.64;104991;1261;72376;-42
2023/10/06 11:13:19;;;;;;;3.10;1.40;;;;;;;20.35;44.66;98753.16;105177;1264;61194;-44
2023/10/06 11:15:49;;;;;;;2.10;1.20;;;;;;;20.34;44.43;98745.21;105490;1273;61121;-43
2023/10/06 11:18:22;;;;;;;2.70;1.20;;;;;;;20.32;44.27;98745.08;105093;1264;75306;-42
2023/10/06 11:20:49;;;;;;;3.00;1.30;;;;;;;20.31;44.24;98745.50;104959;1267;66029;-42
2023/10/06 11:23:17;;;;;;;5.00;1.50;;;;;;;20.31;44.27;98745.70;105023;1264;73686;-43
2023/10/06 11:25:49;;;;;;;2.70;1.00;;;;;;;20.29;44.07;98742.70;105200;1264;61180;-43
2023/10/06 11:28:19;;;;;;;2.90;1.10;;;;;;;20.28;44.06;98745.91;105093;1264;61438;-42
2023/10/06 11:30:49;;;;;;;2.10;1.10;;;;;;;20.28;44.03;98741.47;104939;1260;74573;-43
2023/10/06 11:33:19;;;;;;;2.00;1.20;;;;;;;20.28;44.07;98741.25;105095;1261;66107;-43
2023/10/06 11:35:48;;;;;;;2.10;1.20;;;;;;;20.30;44.21;98740.23;104989;1266;72667;-42
2023/10/06 11:38:15;;;;;;;2.10;1.00;;;;;;;20.30;44.21;98739.55;105057;1264;61299;-43
2023/10/06 11:40:44;;;;;;;3.70;1.20;;;;;;;20.31;44.12;98739.89;105020;1265;61313;-43
2023/10/06 11:43:17;;;;;;;1.90;1.20;;;;;;;20.31;43.94;98737.89;105058;1259;73459;-43
2023/10/06 11:45:44;;;;;;;2.00;1.20;;;;;;;20.30;44.03;98741.56;108839;1259;65439;-44
2023/10/06 11:48:34;;;;;;;1.90;1.10;;;;;;;20.30;44.15;98736.27;106163;1265;73287;-44
2023/10/06 11:51:06;;;;;;;2.20;1.20;;;;;;;20.30;44.22;98734.48;105021;1264;61290;-44
2023/10/06 11:53:45;;;;;;;2.70;1.10;;;;;;;20.31;44.36;98729.85;105417;1264;61321;-44
2023/10/06 11:56:15;;;;;;;3.40;1.20;;;;;;;20.32;44.47;98727.80;105095;1263;74046;-42
2023/10/06 11:58:44;;;;;;;5.70;1.20;;;;;;;20.35;44.47;98722.70;105045;1263;64998;-43
2023/10/06 12:01:32;;;;;;;2.60;1.20;;;;;;;20.38;44.66;98716.05;105034;1261;72627;-42
2023/10/06 12:04:04;;;;;;;3.10;1.40;;;;;;;20.43;44.80;98714.81;105030;1262;61386;-43